createdAt,value
2018-10-07T09:00:34.983Z,17.50
2018-10-07T09:11:10.182Z,15.60
2018-10-07T09:21:39.868Z,15.70
2018-10-07T09:32:20.958Z,16.20
2018-10-07T09:42:49.517Z,16.20
2018-10-07T09:47:51.965Z,16.60
2018-10-07T09:53:17.217Z,16.70
2018-10-07T11:37:31.894Z,16.10
2018-10-07T11:42:53.421Z,16.30
2018-10-07T11:48:09.467Z,16.90
2018-10-07T11:53:15.143Z,17.30
2018-10-07T11:58:24.327Z,17.70
2018-10-07T12:03:27.829Z,18.30
2018-10-07T12:08:32.697Z,18.90
2018-10-07T12:13:31.594Z,19.00
2018-10-07T12:18:29.627Z,19.10
2018-10-07T12:23:28.914Z,19.60
2018-10-07T12:28:31.268Z,19.90
2018-10-07T12:33:30.344Z,19.70
2018-10-07T12:38:29.595Z,19.50
2018-10-07T12:43:21.630Z,19.90
2018-10-07T12:53:58.197Z,20.20
2018-10-07T12:58:52.251Z,20.60
2018-10-07T13:03:46.395Z,20.80
2018-10-07T13:14:33.196Z,20.90
2018-10-07T13:19:28.861Z,20.50
2018-10-07T13:24:24.857Z,20.60
2018-10-07T13:29:20.703Z,20.50
2018-10-07T13:34:15.097Z,20.50
2018-10-07T13:39:12.264Z,20.50
2018-10-07T13:44:05.900Z,20.50
2018-10-07T13:49:02.959Z,20.70
2018-10-07T13:53:58.954Z,20.40
2018-10-07T13:58:54.516Z,20.30
2018-10-07T14:03:50.504Z,20.20
2018-10-07T14:08:48.924Z,19.90
2018-10-07T14:13:46.442Z,19.60
2018-10-07T14:18:42.000Z,19.30
2018-10-07T14:23:42.205Z,19.20
2018-10-07T14:28:45.821Z,18.70
2018-10-07T14:34:07.792Z,18.50
2018-10-07T14:39:19.961Z,18.20
2018-10-07T14:44:42.573Z,17.80
2018-10-07T14:50:01.279Z,17.50
2018-10-07T14:55:33.375Z,17.40
2018-10-07T15:00:39.900Z,17.30
2018-10-07T15:06:05.018Z,17.20
2018-10-07T15:32:21.480Z,17.00
2018-10-07T15:37:38.496Z,16.80
